createdAt,value
2019-01-30T00:00:19.641Z,22.50
2019-01-30T00:01:19.631Z,22.10
2019-01-30T00:02:19.619Z,19.20
2019-01-30T00:03:19.601Z,19.40
2019-01-30T00:04:19.594Z,21.40
2019-01-30T00:05:19.585Z,21.10
2019-01-30T00:06:19.567Z,22.20
2019-01-30T00:07:19.596Z,20.70
2019-01-30T00:08:19.553Z,22.30
2019-01-30T00:09:19.540Z,19.90
2019-01-30T00:10:19.531Z,20.70
2019-01-30T00:11:19.519Z,21.70
2019-01-30T00:12:19.504Z,20.20
2019-01-30T00:13:19.506Z,21.40
2019-01-30T00:14:19.483Z,21.30
2019-01-30T00:15:19.478Z,20.60
2019-01-30T00:16:19.462Z,21.60
2019-01-30T00:17:19.456Z,23.20
2019-01-30T00:18:19.449Z,22.30
2019-01-30T00:19:19.430Z,18.30
2019-01-30T00:20:19.423Z,20.90
2019-01-30T00:21:19.491Z,18.80
2019-01-30T00:22:19.397Z,21.50
2019-01-30T00:23:19.414Z,19.00
2019-01-30T00:24:19.383Z,20.30
2019-01-30T00:25:19.367Z,24.00
2019-01-30T00:26:19.358Z,19.90
2019-01-30T00:27:19.354Z,23.10
2019-01-30T00:28:19.343Z,23.70
2019-01-30T00:29:19.342Z,20.50
2019-01-30T00:30:19.315Z,23.60
2019-01-30T00:31:19.313Z,25.80
2019-01-30T00:32:19.309Z,23.10
2019-01-30T00:33:19.285Z,21.60
2019-01-30T00:34:19.286Z,23.20
2019-01-30T00:35:19.267Z,22.10
2019-01-30T00:36:19.254Z,22.00
2019-01-30T00:37:19.241Z,22.70
2019-01-30T00:38:19.232Z,24.50
2019-01-30T00:39:19.251Z,22.30
2019-01-30T00:40:19.219Z,22.80
2019-01-30T00:41:19.207Z,22.70
2019-01-30T00:42:19.188Z,22.60
2019-01-30T00:43:19.180Z,22.30
2019-01-30T00:44:19.175Z,21.70
2019-01-30T00:45:19.172Z,24.80
2019-01-30T00:46:19.151Z,24.00
2019-01-30T00:47:19.147Z,23.30
2019-01-30T00:48:19.131Z,24.60
2019-01-30T00:49:19.120Z,21.70
2019-01-30T00:50:19.120Z,22.80
2019-01-30T00:51:19.100Z,26.30
2019-01-30T00:52:19.082Z,22.60
2019-01-30T00:53:19.073Z,24.20
2019-01-30T00:54:19.077Z,25.40
2019-01-30T00:55:19.095Z,21.40
2019-01-30T00:56:19.046Z,23.40
2019-01-30T00:57:19.027Z,22.60
2019-01-30T00:58:19.033Z,22.40
2019-01-30T00:59:19.013Z,23.00
2019-01-30T01:00:19.003Z,23.40
2019-01-30T01:01:19.003Z,24.80
2019-01-30T01:02:18.976Z,26.20
2019-01-30T01:03:18.966Z,21.30
2019-01-30T01:04:18.963Z,21.90
2019-01-30T01:05:18.951Z,24.40
2019-01-30T01:06:18.947Z,23.20
2019-01-30T01:07:18.931Z,20.80
2019-01-30T01:08:18.919Z,26.20
2019-01-30T01:09:18.903Z,23.50
2019-01-30T01:10:18.924Z,24.50
2019-01-30T01:11:18.882Z,23.00
2019-01-30T01:12:18.880Z,24.00
2019-01-30T01:13:18.866Z,24.80
2019-01-30T01:14:18.858Z,24.60
2019-01-30T01:15:18.840Z,23.60
2019-01-30T01:16:18.844Z,27.30
2019-01-30T01:17:18.819Z,24.40
2019-01-30T01:18:18.809Z,24.50
2019-01-30T01:19:18.803Z,21.70
2019-01-30T01:20:18.787Z,22.00
2019-01-30T01:21:18.787Z,22.50
2019-01-30T01:22:18.769Z,26.40
2019-01-30T01:23:18.768Z,22.30
2019-01-30T01:24:18.745Z,26.20
2019-01-30T01:25:18.739Z,22.40
2019-01-30T01:26:18.730Z,23.10
2019-01-30T01:27:18.719Z,24.50
2019-01-30T01:28:18.716Z,23.70
2019-01-30T01:29:18.706Z,21.10
2019-01-30T01:30:24.799Z,22.00
2019-01-30T01:31:19.669Z,24.60
2019-01-30T01:32:18.665Z,25.90
2019-01-30T01:33:18.656Z,27.90
2019-01-30T01:34:18.676Z,26.40
2019-01-30T01:35:18.634Z,24.20
2019-01-30T01:36:18.621Z,21.40
2019-01-30T01:37:18.607Z,23.80
2019-01-30T01:38:18.601Z,20.60
2019-01-30T01:39:18.593Z,26.10
2019-01-30T01:40:18.590Z,26.20
2019-01-30T01:41:18.597Z,24.00
2019-01-30T01:42:18.554Z,21.30
2019-01-30T01:43:18.553Z,20.30
2019-01-30T01:44:18.540Z,22.70
2019-01-30T01:45:18.538Z,23.10
2019-01-30T01:46:18.511Z,22.60
2019-01-30T01:47:18.511Z,26.00
2019-01-30T01:48:18.499Z,23.70
2019-01-30T01:49:18.480Z,23.20
2019-01-30T01:50:18.480Z,23.30
2019-01-30T01:51:18.484Z,23.00
2019-01-30T01:52:18.453Z,21.60
2019-01-30T01:53:18.436Z,21.00
2019-01-30T01:54:18.432Z,21.40
2019-01-30T01:55:18.416Z,22.00
2019-01-30T01:56:18.405Z,22.00
2019-01-30T01:57:18.405Z,22.40
2019-01-30T01:58:18.388Z,23.00
2019-01-30T01:59:18.373Z,23.10
2019-01-30T02:00:18.364Z,24.10
2019-01-30T02:01:18.391Z,24.40
2019-01-30T02:02:18.346Z,23.10
2019-01-30T02:03:18.339Z,23.60
2019-01-30T02:04:18.321Z,24.10
2019-01-30T02:05:18.310Z,26.00
2019-01-30T02:06:18.299Z,24.30
2019-01-30T02:07:18.299Z,24.50
2019-01-30T02:08:18.282Z,22.10
2019-01-30T02:09:18.305Z,24.10
2019-01-30T02:10:18.264Z,25.60
2019-01-30T02:11:18.254Z,22.90
2019-01-30T02:12:18.236Z,24.40
2019-01-30T02:13:18.233Z,25.70
2019-01-30T02:14:18.218Z,25.10
2019-01-30T02:15:18.212Z,27.30
2019-01-30T02:16:18.200Z,22.30
2019-01-30T02:17:18.189Z,23.20
2019-01-30T02:18:18.173Z,21.10
2019-01-30T02:19:18.167Z,24.00
2019-01-30T02:20:18.283Z,24.30
2019-01-30T02:21:18.150Z,24.60
2019-01-30T02:22:18.136Z,23.40
2019-01-30T02:23:18.122Z,24.40
2019-01-30T02:24:18.118Z,23.50
2019-01-30T02:25:18.099Z,24.70
2019-01-30T02:26:18.097Z,26.10
2019-01-30T02:27:18.088Z,26.90
2019-01-30T02:28:18.071Z,26.00
2019-01-30T02:29:18.075Z,27.00
2019-01-30T02:30:18.054Z,25.20
2019-01-30T02:31:18.049Z,24.30
2019-01-30T02:32:18.029Z,28.60
2019-01-30T02:33:18.028Z,28.30
2019-01-30T02:34:18.036Z,26.30
2019-01-30T02:35:17.997Z,26.90
2019-01-30T02:36:17.990Z,23.70
2019-01-30T02:37:17.973Z,27.40
2019-01-30T02:38:17.966Z,26.30
2019-01-30T02:39:17.952Z,29.20
2019-01-30T02:40:17.954Z,23.30
2019-01-30T02:41:17.932Z,26.40
2019-01-30T02:42:17.924Z,25.00
2019-01-30T02:43:17.959Z,26.00
2019-01-30T02:44:17.906Z,25.40
2019-01-30T02:45:17.926Z,27.10
2019-01-30T02:46:17.879Z,27.20
2019-01-30T02:47:17.872Z,25.70
2019-01-30T02:48:17.855Z,23.40
2019-01-30T02:49:17.844Z,25.50
2019-01-30T02:50:17.841Z,25.70
2019-01-30T02:51:17.843Z,25.60
2019-01-30T02:52:17.817Z,26.00
2019-01-30T02:53:17.807Z,24.90
2019-01-30T02:54:17.794Z,22.60
2019-01-30T02:55:17.792Z,23.00
2019-01-30T02:56:17.782Z,24.30
2019-01-30T02:57:17.762Z,26.30
2019-01-30T02:58:17.759Z,22.70
2019-01-30T02:59:17.745Z,21.60
2019-01-30T03:00:17.776Z,26.10
2019-01-30T03:01:17.724Z,23.90
2019-01-30T03:02:17.721Z,25.10
2019-01-30T03:03:17.698Z,23.70
2019-01-30T03:04:17.689Z,27.10
2019-01-30T03:05:17.829Z,22.70
2019-01-30T03:06:17.676Z,22.90
2019-01-30T03:07:17.668Z,25.10
2019-01-30T03:08:17.659Z,25.10
2019-01-30T03:09:17.639Z,23.30
2019-01-30T03:10:17.623Z,23.30
2019-01-30T03:11:17.621Z,22.20
2019-01-30T03:12:17.613Z,23.80
2019-01-30T03:13:17.614Z,23.40
2019-01-30T03:14:17.594Z,23.20
2019-01-30T03:15:17.570Z,22.10
2019-01-30T03:16:17.565Z,24.40
2019-01-30T03:17:17.563Z,23.30
2019-01-30T03:18:17.549Z,24.70
2019-01-30T03:19:17.528Z,23.30
2019-01-30T03:20:17.522Z,25.60
2019-01-30T03:21:17.510Z,21.10
2019-01-30T03:22:17.503Z,25.10
2019-01-30T03:23:17.504Z,22.20
2019-01-30T03:24:17.477Z,26.50
2019-01-30T03:25:17.470Z,26.20
2019-01-30T03:26:17.497Z,23.60
2019-01-30T03:27:17.445Z,25.50
2019-01-30T03:28:17.434Z,24.90
2019-01-30T03:29:17.427Z,25.90
2019-01-30T03:30:17.426Z,22.00
2019-01-30T03:31:19.200Z,22.60
2019-01-30T03:32:17.422Z,25.50
2019-01-30T03:33:17.384Z,23.10
2019-01-30T03:34:17.369Z,27.50
2019-01-30T03:35:17.412Z,20.60
2019-01-30T03:36:17.357Z,22.80
2019-01-30T03:37:17.340Z,20.80
2019-01-30T03:38:17.335Z,20.60
2019-01-30T03:39:17.324Z,23.20
2019-01-30T03:40:17.322Z,22.40
2019-01-30T03:41:17.311Z,24.90
2019-01-30T03:42:17.289Z,22.20
2019-01-30T03:43:17.280Z,23.00
2019-01-30T03:44:17.272Z,21.90
2019-01-30T03:45:17.275Z,21.80
2019-01-30T03:46:17.245Z,23.10
2019-01-30T03:47:17.241Z,19.60
2019-01-30T03:48:17.232Z,21.20
2019-01-30T03:49:17.221Z,24.40
2019-01-30T03:50:17.214Z,21.60
2019-01-30T03:51:17.202Z,19.70
2019-01-30T03:52:17.189Z,21.30
2019-01-30T03:53:17.181Z,20.10
2019-01-30T03:54:17.168Z,18.90
2019-01-30T03:55:17.159Z,21.50
2019-01-30T03:56:17.147Z,19.80
2019-01-30T03:57:17.141Z,22.10
2019-01-30T03:58:17.123Z,20.40
2019-01-30T03:59:17.116Z,21.10
2019-01-30T04:00:17.102Z,22.80
2019-01-30T04:01:26.443Z,20.70
2019-01-30T04:02:18.079Z,20.20
2019-01-30T04:03:17.075Z,19.50
2019-01-30T04:04:17.065Z,22.10
2019-01-30T04:05:17.052Z,21.30
2019-01-30T04:06:17.045Z,20.50
2019-01-30T04:07:17.051Z,22.00
2019-01-30T04:08:17.021Z,19.00
2019-01-30T04:09:17.014Z,19.90
2019-01-30T04:10:16.997Z,20.60
2019-01-30T04:11:17.003Z,22.00
2019-01-30T04:12:16.986Z,20.40
2019-01-30T04:13:16.995Z,19.90
2019-01-30T04:14:16.959Z,22.20
2019-01-30T04:15:16.951Z,19.70
2019-01-30T04:16:16.939Z,22.50
2019-01-30T04:17:16.963Z,18.60
2019-01-30T04:18:16.918Z,19.40
2019-01-30T04:19:16.903Z,18.90
2019-01-30T04:20:16.892Z,20.40
2019-01-30T04:21:16.887Z,18.90
2019-01-30T04:22:16.887Z,22.20
2019-01-30T04:23:16.871Z,18.90
2019-01-30T04:24:16.856Z,22.10
2019-01-30T04:25:16.843Z,22.30
2019-01-30T04:26:16.832Z,20.70
2019-01-30T04:27:16.825Z,19.90
2019-01-30T04:28:16.847Z,22.00
2019-01-30T04:29:16.804Z,19.20
2019-01-30T04:30:16.795Z,20.20
2019-01-30T04:31:16.782Z,20.30
2019-01-30T04:32:16.771Z,19.60
2019-01-30T04:33:16.761Z,20.70
2019-01-30T04:34:16.773Z,24.50
2019-01-30T04:35:16.738Z,22.90
2019-01-30T04:36:16.734Z,20.30
2019-01-30T04:37:16.721Z,21.80
2019-01-30T04:38:16.710Z,18.50
2019-01-30T04:39:16.744Z,21.10
2019-01-30T04:40:16.690Z,20.90
2019-01-30T04:41:16.673Z,20.50
2019-01-30T04:42:16.670Z,21.70
2019-01-30T04:43:16.653Z,26.90
2019-01-30T04:44:16.651Z,21.20
2019-01-30T04:45:16.684Z,19.30
2019-01-30T04:46:16.628Z,20.90
2019-01-30T04:47:16.618Z,20.50
2019-01-30T04:48:16.606Z,19.60
2019-01-30T04:49:16.591Z,19.80
2019-01-30T04:50:16.589Z,21.60
2019-01-30T04:51:16.583Z,19.80
2019-01-30T04:52:16.570Z,19.30
2019-01-30T04:53:16.555Z,19.60
2019-01-30T04:54:16.553Z,20.20
2019-01-30T04:55:16.533Z,19.50
2019-01-30T04:56:16.527Z,20.20
2019-01-30T04:57:16.507Z,20.70
2019-01-30T04:58:16.502Z,20.50
2019-01-30T04:59:16.490Z,19.70
2019-01-30T05:00:16.485Z,19.90
2019-01-30T05:01:16.473Z,23.60
2019-01-30T05:02:16.456Z,22.60
2019-01-30T05:03:16.453Z,22.60
2019-01-30T05:04:16.434Z,20.90
2019-01-30T05:05:16.425Z,21.50
2019-01-30T05:06:16.424Z,20.20
2019-01-30T05:07:16.411Z,18.80
2019-01-30T05:08:16.430Z,24.90
2019-01-30T05:09:16.384Z,20.90
2019-01-30T05:10:16.382Z,19.70
2019-01-30T05:11:16.368Z,21.50
2019-01-30T05:12:16.361Z,21.40
2019-01-30T05:13:16.360Z,20.30
2019-01-30T05:14:16.330Z,22.80
2019-01-30T05:15:16.328Z,22.60
2019-01-30T05:16:16.315Z,21.50
2019-01-30T05:17:16.298Z,21.90
2019-01-30T05:18:16.344Z,24.00
2019-01-30T05:19:16.282Z,20.70
2019-01-30T05:20:16.269Z,21.20
2019-01-30T05:21:16.259Z,21.30
2019-01-30T05:22:16.247Z,20.10
2019-01-30T05:23:16.242Z,21.40
2019-01-30T05:24:16.244Z,21.20
2019-01-30T05:25:16.221Z,21.50
2019-01-30T05:26:16.211Z,23.50
2019-01-30T05:27:16.198Z,22.70
2019-01-30T05:28:16.193Z,20.80
2019-01-30T05:29:16.190Z,20.40
2019-01-30T05:30:16.177Z,21.60
2019-01-30T05:31:16.155Z,21.50
2019-01-30T05:32:16.143Z,20.70
2019-01-30T05:33:24.034Z,22.50
2019-01-30T05:34:16.133Z,23.20
2019-01-30T05:35:16.123Z,24.00
2019-01-30T05:36:16.109Z,18.80
2019-01-30T05:37:16.091Z,19.90
2019-01-30T05:38:16.083Z,21.00
2019-01-30T05:39:16.077Z,21.10
2019-01-30T05:40:16.065Z,21.90
2019-01-30T05:41:16.064Z,23.20
2019-01-30T05:42:16.073Z,20.30
2019-01-30T05:43:16.034Z,21.70
2019-01-30T05:44:16.024Z,22.10
2019-01-30T05:45:16.013Z,23.50
2019-01-30T05:46:15.997Z,21.40
2019-01-30T05:47:15.992Z,22.30
2019-01-30T05:48:15.992Z,22.10
2019-01-30T05:49:15.968Z,22.20
2019-01-30T05:50:15.959Z,20.80
2019-01-30T05:51:15.949Z,20.70
2019-01-30T05:52:15.956Z,21.20
2019-01-30T05:53:15.968Z,23.40
2019-01-30T05:54:15.916Z,22.00
2019-01-30T05:55:15.909Z,20.70
2019-01-30T05:56:15.907Z,23.70
2019-01-30T05:57:15.889Z,22.30
2019-01-30T05:58:15.874Z,24.50
2019-01-30T05:59:15.874Z,22.30
2019-01-30T06:00:15.859Z,21.90
2019-01-30T06:01:15.847Z,21.60
2019-01-30T06:02:15.930Z,23.70
2019-01-30T06:03:15.826Z,22.00
2019-01-30T06:04:15.857Z,22.30
2019-01-30T06:05:15.803Z,23.40
2019-01-30T06:06:15.796Z,23.80
2019-01-30T06:07:15.793Z,20.50
2019-01-30T06:08:15.781Z,19.50
2019-01-30T06:09:15.763Z,20.30
2019-01-30T06:10:15.764Z,25.70
2019-01-30T06:11:15.743Z,20.70
2019-01-30T06:12:15.738Z,20.70
2019-01-30T06:13:15.725Z,20.00
2019-01-30T06:14:15.709Z,21.10
2019-01-30T06:15:15.714Z,20.50
2019-01-30T06:16:15.694Z,22.60
2019-01-30T06:17:15.765Z,23.20
2019-01-30T06:18:15.672Z,20.90
2019-01-30T06:19:15.662Z,21.70
2019-01-30T06:20:15.653Z,20.30
2019-01-30T06:21:15.664Z,22.00
2019-01-30T06:22:15.631Z,20.70
2019-01-30T06:23:15.622Z,22.10
2019-01-30T06:24:15.607Z,20.90
2019-01-30T06:25:15.604Z,21.20
2019-01-30T06:26:15.606Z,21.20
2019-01-30T06:27:15.591Z,20.20
2019-01-30T06:28:15.581Z,21.30
2019-01-30T06:29:15.563Z,21.20
2019-01-30T06:30:15.544Z,18.90
2019-01-30T06:31:15.550Z,21.10
2019-01-30T06:32:21.711Z,23.50
2019-01-30T06:33:16.512Z,21.70
2019-01-30T06:34:15.512Z,22.70
2019-01-30T06:35:15.492Z,24.00
2019-01-30T06:36:15.484Z,20.60
2019-01-30T06:37:18.159Z,22.30
2019-01-30T06:38:15.465Z,22.00
2019-01-30T06:39:15.456Z,21.20
2019-01-30T06:40:15.450Z,22.00
2019-01-30T06:41:15.430Z,20.40
2019-01-30T06:42:15.428Z,21.60
2019-01-30T06:43:15.418Z,19.80
2019-01-30T06:44:15.399Z,21.20
2019-01-30T06:45:15.394Z,20.00
2019-01-30T06:46:15.384Z,21.40
2019-01-30T06:47:15.375Z,21.50
2019-01-30T06:48:15.396Z,19.50
2019-01-30T06:49:15.349Z,21.20
2019-01-30T06:50:15.338Z,21.20
2019-01-30T06:51:15.332Z,20.30
2019-01-30T06:52:15.319Z,21.20
2019-01-30T06:53:15.327Z,21.00
2019-01-30T06:54:15.308Z,21.30
2019-01-30T06:55:15.285Z,22.70
2019-01-30T06:56:15.282Z,20.00
2019-01-30T06:57:15.270Z,21.30
2019-01-30T06:58:15.269Z,23.80
2019-01-30T06:59:15.273Z,22.60
2019-01-30T07:00:15.240Z,21.70
2019-01-30T07:01:15.224Z,19.90
2019-01-30T07:02:15.216Z,21.60
2019-01-30T07:03:15.210Z,20.50
2019-01-30T07:04:15.217Z,20.60
2019-01-30T07:05:15.186Z,20.90
2019-01-30T07:06:15.176Z,21.40
2019-01-30T07:07:15.165Z,24.00
2019-01-30T07:08:15.162Z,19.70
2019-01-30T07:09:15.142Z,22.30
2019-01-30T07:10:15.145Z,20.10
2019-01-30T07:11:15.123Z,22.00
2019-01-30T07:12:15.113Z,22.30
2019-01-30T07:13:15.103Z,19.90
2019-01-30T07:14:15.093Z,20.80
2019-01-30T07:15:15.117Z,21.50
2019-01-30T07:16:15.066Z,21.20
2019-01-30T07:17:15.057Z,20.60
2019-01-30T07:18:15.056Z,22.40
2019-01-30T07:19:15.041Z,20.30
2019-01-30T07:20:15.101Z,19.50
2019-01-30T07:21:15.026Z,22.30
2019-01-30T07:22:15.003Z,18.30
2019-01-30T07:23:14.993Z,20.10
2019-01-30T07:24:14.989Z,20.20
2019-01-30T07:25:14.971Z,19.60
2019-01-30T07:26:14.962Z,19.50
2019-01-30T07:27:14.987Z,19.90
2019-01-30T07:28:14.942Z,17.90
2019-01-30T07:29:14.934Z,21.80
2019-01-30T07:30:14.918Z,21.40
2019-01-30T07:31:14.908Z,19.30
2019-01-30T07:32:14.901Z,19.10
2019-01-30T07:33:14.896Z,19.50
2019-01-30T07:34:14.886Z,21.20
2019-01-30T07:35:14.866Z,19.90
2019-01-30T07:36:14.859Z,21.60
2019-01-30T07:37:14.845Z,20.30
2019-01-30T07:38:14.853Z,20.40
2019-01-30T07:39:14.834Z,20.00
2019-01-30T07:40:14.823Z,21.10
2019-01-30T07:41:14.809Z,23.80
2019-01-30T07:42:14.797Z,20.40
2019-01-30T07:43:14.781Z,21.80
2019-01-30T07:44:14.779Z,18.40
2019-01-30T07:45:14.760Z,20.30
2019-01-30T07:46:14.749Z,19.20
2019-01-30T07:47:14.756Z,18.80
2019-01-30T07:48:14.737Z,20.60
2019-01-30T07:49:14.719Z,18.40
2019-01-30T07:50:14.718Z,21.30
2019-01-30T07:51:15.914Z,20.40
2019-01-30T07:52:14.730Z,19.40
2019-01-30T07:53:14.675Z,23.60
2019-01-30T07:54:14.665Z,20.70
2019-01-30T07:55:14.656Z,20.70
2019-01-30T07:56:14.657Z,22.20
2019-01-30T07:57:14.646Z,20.20
2019-01-30T07:58:14.644Z,19.90
2019-01-30T07:59:14.618Z,23.20
2019-01-30T08:00:14.606Z,20.20
2019-01-30T08:01:14.599Z,23.60
2019-01-30T08:02:14.581Z,21.50
2019-01-30T08:03:14.596Z,20.20
2019-01-30T08:04:14.561Z,21.90
2019-01-30T08:05:14.551Z,23.80
2019-01-30T08:06:14.542Z,20.30
2019-01-30T08:07:14.536Z,20.30
2019-01-30T08:08:14.524Z,21.10
2019-01-30T08:09:14.521Z,20.90
2019-01-30T08:10:14.501Z,23.70
2019-01-30T08:11:14.487Z,22.50
2019-01-30T08:12:14.476Z,20.80
2019-01-30T08:13:14.479Z,22.10
2019-01-30T08:14:14.471Z,22.50
2019-01-30T08:15:14.452Z,24.80
2019-01-30T08:16:14.438Z,23.80
2019-01-30T08:17:14.425Z,23.80
2019-01-30T08:18:14.411Z,23.30
2019-01-30T08:19:14.416Z,24.00
2019-01-30T08:20:14.391Z,22.30
2019-01-30T08:21:14.380Z,24.20
2019-01-30T08:22:14.376Z,23.10
2019-01-30T08:23:14.511Z,24.80
2019-01-30T08:24:21.629Z,25.20
2019-01-30T08:25:21.879Z,23.10
2019-01-30T08:26:14.334Z,23.40
2019-01-30T08:27:14.497Z,21.40
2019-01-30T08:28:15.931Z,21.70
2019-01-30T08:29:14.508Z,24.40
2019-01-30T08:30:22.379Z,22.60
2019-01-30T08:32:35.477Z,23.10
2019-01-30T08:33:35.316Z,24.30
2019-01-30T08:34:44.342Z,23.10
2019-01-30T08:35:35.297Z,21.30
2019-01-30T08:36:35.292Z,23.60
2019-01-30T08:37:35.273Z,21.40
2019-01-30T08:38:35.270Z,23.50
2019-01-30T08:39:35.256Z,21.80
2019-01-30T08:40:35.255Z,21.40
2019-01-30T08:41:42.292Z,24.50
2019-01-30T08:42:42.906Z,21.60
2019-01-30T08:43:43.936Z,22.50
2019-01-30T08:44:47.130Z,20.40
2019-01-30T08:45:43.004Z,21.50
2019-01-30T08:46:42.241Z,21.00
2019-01-30T08:47:43.085Z,21.80
2019-01-30T08:48:43.117Z,21.10
2019-01-30T08:49:35.150Z,20.70
2019-01-30T08:50:35.141Z,23.30
2019-01-30T08:51:35.126Z,22.20
2019-01-30T08:52:35.123Z,20.30
2019-01-30T08:53:35.116Z,21.80
2019-01-30T08:54:44.141Z,22.60
2019-01-30T08:55:35.093Z,20.80
2019-01-30T08:56:38.946Z,21.00
2019-01-30T08:57:36.072Z,21.70
2019-01-30T08:58:35.058Z,21.30
2019-01-30T08:59:35.046Z,22.40
2019-01-30T09:00:35.040Z,23.20
2019-01-30T09:01:35.024Z,23.80
2019-01-30T09:02:35.014Z,22.00
2019-01-30T09:03:35.006Z,24.20
2019-01-30T09:04:34.989Z,19.90
2019-01-30T09:05:34.976Z,20.90
2019-01-30T09:06:34.967Z,21.20
2019-01-30T09:07:43.923Z,20.00
2019-01-30T09:08:35.957Z,23.30
2019-01-30T09:09:34.943Z,21.10
2019-01-30T09:10:34.928Z,21.20
2019-01-30T09:11:34.911Z,23.00
2019-01-30T09:12:34.905Z,24.20
2019-01-30T09:13:34.896Z,20.90
2019-01-30T09:14:34.885Z,21.60
2019-01-30T09:15:34.876Z,22.00
2019-01-30T09:16:34.859Z,18.00
2019-01-30T09:17:34.848Z,21.30
2019-01-30T09:18:34.845Z,20.80
2019-01-30T09:19:34.826Z,18.60
2019-01-30T09:20:34.830Z,19.90
2019-01-30T09:21:34.828Z,20.90
2019-01-30T09:22:34.799Z,20.20
2019-01-30T09:23:34.784Z,20.00
2019-01-30T09:24:34.773Z,19.20
2019-01-30T09:25:34.766Z,20.20
2019-01-30T09:26:34.756Z,20.00
2019-01-30T09:27:34.753Z,21.70
2019-01-30T09:28:34.806Z,19.10
2019-01-30T09:29:34.719Z,18.40
2019-01-30T09:30:34.718Z,20.50
2019-01-30T09:31:34.698Z,20.00
2019-01-30T09:32:34.688Z,20.90
2019-01-30T09:33:34.703Z,20.20
2019-01-30T09:34:34.698Z,20.60
2019-01-30T09:35:34.656Z,18.80
2019-01-30T09:36:34.658Z,18.70
2019-01-30T09:37:34.639Z,21.50
2019-01-30T09:38:34.626Z,19.90
2019-01-30T09:39:34.656Z,22.70
2019-01-30T09:40:34.607Z,21.50
2019-01-30T09:41:34.621Z,21.50
2019-01-30T09:42:34.583Z,22.00
2019-01-30T09:43:34.629Z,24.40
2019-01-30T09:44:34.565Z,20.10
2019-01-30T09:45:34.599Z,20.10
2019-01-30T09:46:34.552Z,21.30
2019-01-30T09:47:34.538Z,23.00
2019-01-30T09:48:36.946Z,21.00
2019-01-30T09:49:34.503Z,21.80
2019-01-30T09:50:34.636Z,22.30
2019-01-30T09:51:34.488Z,22.50
2019-01-30T09:52:34.489Z,22.40
2019-01-30T09:53:34.519Z,23.30
2019-01-30T09:54:34.456Z,19.70
2019-01-30T09:55:34.451Z,20.30
2019-01-30T09:56:34.432Z,21.40
2019-01-30T09:57:34.435Z,23.00
2019-01-30T09:58:34.414Z,23.20
2019-01-30T09:59:34.401Z,22.60
2019-01-30T10:00:34.389Z,20.60
2019-01-30T10:01:34.381Z,20.10
2019-01-30T10:02:34.376Z,21.70
2019-01-30T10:03:36.441Z,19.10
2019-01-30T10:04:34.345Z,19.60
2019-01-30T10:05:34.334Z,19.50
2019-01-30T10:06:34.322Z,22.60
2019-01-30T10:07:34.367Z,20.00
2019-01-30T10:08:34.315Z,19.50
2019-01-30T10:09:34.307Z,19.50
2019-01-30T10:10:34.281Z,21.40
2019-01-30T10:11:34.269Z,21.20
2019-01-30T10:12:34.258Z,21.00
2019-01-30T10:13:34.247Z,22.00
2019-01-30T10:14:34.255Z,20.50
2019-01-30T10:15:34.243Z,17.80
2019-01-30T10:16:34.224Z,19.40
2019-01-30T10:17:34.212Z,18.50
2019-01-30T10:18:34.198Z,18.70
2019-01-30T10:19:34.189Z,19.80
2019-01-30T10:20:34.214Z,17.50
2019-01-30T10:21:34.170Z,19.40
2019-01-30T10:22:34.160Z,18.40
2019-01-30T10:23:34.151Z,20.90
2019-01-30T10:24:34.151Z,19.40
2019-01-30T10:25:34.126Z,17.10
2019-01-30T10:26:34.117Z,21.20
2019-01-30T10:27:34.099Z,18.60
2019-01-30T10:28:34.098Z,18.40
2019-01-30T10:29:34.077Z,19.20
2019-01-30T10:30:34.066Z,19.10
2019-01-30T10:31:34.094Z,19.10
2019-01-30T10:32:34.051Z,19.60
2019-01-30T10:33:34.040Z,19.00
2019-01-30T10:34:34.028Z,20.50
2019-01-30T10:35:34.015Z,18.50
2019-01-30T10:36:34.010Z,18.30
2019-01-30T10:37:34.012Z,18.20
2019-01-30T10:38:33.983Z,18.30
2019-01-30T10:39:33.971Z,16.60
2019-01-30T10:40:33.967Z,17.20
2019-01-30T10:41:33.954Z,19.30
2019-01-30T10:42:33.961Z,17.00
2019-01-30T10:43:33.941Z,18.20
2019-01-30T10:44:33.919Z,16.70
2019-01-30T10:45:33.908Z,16.20
2019-01-30T10:46:33.901Z,18.30
2019-01-30T10:47:33.884Z,13.50
2019-01-30T10:48:36.376Z,17.20
2019-01-30T10:49:33.876Z,15.50
2019-01-30T10:50:33.851Z,15.20
2019-01-30T10:51:33.846Z,16.60
2019-01-30T10:52:33.837Z,18.60
2019-01-30T10:53:33.836Z,19.10
2019-01-30T10:54:33.818Z,16.10
2019-01-30T10:55:33.803Z,15.90
2019-01-30T10:56:33.789Z,17.10
2019-01-30T10:57:33.777Z,16.00
2019-01-30T10:58:33.789Z,14.50
2019-01-30T10:59:33.781Z,14.50
2019-01-30T11:00:33.749Z,14.30
2019-01-30T11:01:33.733Z,14.60
2019-01-30T11:02:33.727Z,14.20
2019-01-30T11:03:33.712Z,15.30
2019-01-30T11:04:33.706Z,15.10
2019-01-30T11:05:33.741Z,16.30
2019-01-30T11:06:33.679Z,15.00
2019-01-30T11:07:33.674Z,13.90
2019-01-30T11:08:34.563Z,13.70
2019-01-30T11:09:33.646Z,12.60
2019-01-30T11:10:33.636Z,13.50
2019-01-30T11:11:33.638Z,14.60
2019-01-30T11:12:33.621Z,13.10
2019-01-30T11:13:33.610Z,13.40
2019-01-30T11:14:33.596Z,14.80
2019-01-30T11:15:33.603Z,14.00
2019-01-30T11:16:33.570Z,11.80
2019-01-30T11:17:33.560Z,12.30
2019-01-30T11:18:33.558Z,15.80
2019-01-30T11:19:33.544Z,15.00
2019-01-30T11:20:33.536Z,15.60
2019-01-30T11:21:33.533Z,13.10
2019-01-30T11:22:33.511Z,13.10
2019-01-30T11:23:33.495Z,14.80
2019-01-30T11:24:33.490Z,11.70
2019-01-30T11:25:33.490Z,12.80
2019-01-30T11:26:33.517Z,12.70
2019-01-30T11:27:33.452Z,12.80
2019-01-30T11:28:33.441Z,15.70
2019-01-30T11:29:33.432Z,13.20
2019-01-30T11:30:35.041Z,12.90
2019-01-30T11:31:33.414Z,12.50
2019-01-30T11:32:33.412Z,14.10
2019-01-30T11:33:33.391Z,13.30
2019-01-30T11:34:33.376Z,14.00
2019-01-30T11:35:33.371Z,11.80
2019-01-30T11:36:33.360Z,13.20
2019-01-30T11:37:33.356Z,12.60
2019-01-30T11:38:33.341Z,14.50
2019-01-30T11:39:33.323Z,13.00
2019-01-30T11:40:33.326Z,13.80
2019-01-30T11:41:33.307Z,11.30
2019-01-30T11:42:33.290Z,13.10
2019-01-30T11:43:33.287Z,11.60
2019-01-30T11:44:33.278Z,14.40
2019-01-30T11:45:33.267Z,14.10
2019-01-30T11:46:33.250Z,14.90
2019-01-30T11:47:33.236Z,14.00
2019-01-30T11:48:33.236Z,14.20
2019-01-30T11:49:34.231Z,14.00
2019-01-30T11:50:33.209Z,15.20
2019-01-30T11:51:33.206Z,14.70
2019-01-30T11:52:33.184Z,15.00
2019-01-30T11:53:33.180Z,15.60
2019-01-30T11:54:38.887Z,16.20
2019-01-30T11:55:34.154Z,13.00
2019-01-30T11:56:33.148Z,16.30
2019-01-30T11:57:33.133Z,15.70
2019-01-30T11:58:33.118Z,14.90
2019-01-30T11:59:33.107Z,15.40
2019-01-30T12:00:33.115Z,17.90
2019-01-30T12:01:33.090Z,14.60
2019-01-30T12:02:33.081Z,14.80
2019-01-30T12:03:33.067Z,16.50
2019-01-30T12:04:33.058Z,15.40
2019-01-30T12:05:33.055Z,15.70
2019-01-30T12:06:33.041Z,16.50
2019-01-30T12:07:33.025Z,17.00
2019-01-30T12:08:33.014Z,17.70
2019-01-30T12:09:33.004Z,17.90
2019-01-30T12:10:33.099Z,16.20
2019-01-30T12:11:32.991Z,18.00
2019-01-30T12:12:32.972Z,15.30
2019-01-30T12:13:32.959Z,15.00
2019-01-30T12:14:32.949Z,17.20
2019-01-30T12:15:33.036Z,16.80
2019-01-30T12:16:32.931Z,16.80
2019-01-30T12:17:32.913Z,15.20
2019-01-30T12:18:32.901Z,18.10
2019-01-30T12:19:32.899Z,16.50
2019-01-30T12:20:32.884Z,17.90
2019-01-30T12:21:32.884Z,15.80
2019-01-30T12:22:32.864Z,16.60
2019-01-30T12:23:32.861Z,15.50
2019-01-30T12:24:32.837Z,16.90
2019-01-30T12:25:32.828Z,16.10
2019-01-30T12:26:32.837Z,16.80
2019-01-30T12:27:32.805Z,15.30
2019-01-30T12:28:32.798Z,16.90
2019-01-30T12:29:32.787Z,16.50
2019-01-30T12:30:32.772Z,17.20
2019-01-30T12:31:32.765Z,17.10
2019-01-30T12:32:32.762Z,15.60
2019-01-30T12:33:32.840Z,16.10
2019-01-30T12:34:32.736Z,15.80
2019-01-30T12:35:32.724Z,18.10
2019-01-30T12:36:32.712Z,17.50
2019-01-30T12:37:32.704Z,16.40
2019-01-30T12:38:32.689Z,16.80
2019-01-30T12:39:32.686Z,17.20
2019-01-30T12:40:32.663Z,17.60
2019-01-30T12:41:32.653Z,17.80
2019-01-30T12:42:32.646Z,16.80
2019-01-30T12:43:32.641Z,18.70
2019-01-30T12:44:33.552Z,16.70
2019-01-30T12:45:32.610Z,17.80
2019-01-30T12:46:32.605Z,17.40
2019-01-30T12:47:32.598Z,19.40
2019-01-30T12:48:32.589Z,19.40
2019-01-30T12:49:32.572Z,17.50
2019-01-30T12:50:32.561Z,19.40
2019-01-30T12:51:32.549Z,17.80
2019-01-30T12:52:32.540Z,17.50
2019-01-30T12:53:34.754Z,19.20